HomeShort term forecast

Short term forecast

Graphical weather forecast for the next 48 hours for Montreal:

Short term forecast

This weather forecast is automatically refreshed every 3 hours.

Hourly Experimental Forecast for the next 48 hours ®

Overall summary: Mostly cloudy throughout the day.

 Date & Hour   Temp   Feel   Baro   Hum   Speed & Bearing   Wind Gust   Precip.%   Precip.   Visibility   Cloud cover   Conditions 
 05/03/2021 - 12:00  -9.9°C  -18.5°C  1009.1 hPa  60%  24.9 km/h   37.5 km/h  6%  0.01 mm/h  16.1km  91%  Overcast 
 05/03/2021 - 13:00  -9.6°C  -18.1°C  1008.9 hPa  69%  23.8 km/h   35.4 km/h  9%  0.06 mm/h  15.2km  94%  Overcast 
 05/03/2021 - 14:00  -9.1°C  -17.3°C  1008.8 hPa  70%  23.2 km/h   35.0 km/h  9%  0.08 mm/h  10.3km  96%  Overcast 
 05/03/2021 - 15:00  -8.4°C  -16.3°C  1009.0 hPa  67%  22.5 km/h   35.2 km/h  6%  0.04 mm/h  13.6km  99%  Overcast 
 05/03/2021 - 16:00  -8.0°C  -15.6°C  1009.4 hPa  63%  21.5 km/h   34.4 km/h  6%  0.03 mm/h  16.1km  100%  Overcast 
 05/03/2021 - 17:00  -8.2°C  -15.3°C  1010.1 hPa  65%  18.8 km/h   32.8 km/h  5%  0.04 mm/h  16.1km  97%  Overcast 
 05/03/2021 - 18:00  -8.8°C  -15.7°C  1010.7 hPa  68%  16.9 km/h   33.9 km/h  3%  0.03 mm/h  16.1km  87%  Mostly Cloudy 
 05/03/2021 - 19:00  -9.5°C  -16.3°C  1011.3 hPa  70%  15.7 km/h   34.2 km/h  0%  --  16.1km  70%  Mostly Cloudy 
 05/03/2021 - 20:00  -10.0°C  -16.8°C  1011.6 hPa  71%  15.4 km/h   34.1 km/h  2%  0.03 mm/h  16.1km  59%  Partly Cloudy 
 05/03/2021 - 21:00  -10.5°C  -17.3°C  1011.7 hPa  73%  14.9 km/h   32.1 km/h  1%  0.02 mm/h  16.1km  58%  Partly Cloudy 
 05/03/2021 - 22:00  -11.1°C  -18.0°C  1012.1 hPa  75%  14.7 km/h   31.5 km/h  1%  0.03 mm/h  16.1km  50%  Partly Cloudy 
 05/03/2021 - 23:00  -11.7°C  -18.7°C  1012.8 hPa  77%  14.6 km/h   32.0 km/h  0%  --  16.1km  37%  Partly Cloudy 
 06/03/2021 - 00:00  -12.6°C  -20.1°C  1013.1 hPa  79%  15.3 km/h   32.5 km/h  0%  --  16.1km  33%  Partly Cloudy 
 06/03/2021 - 01:00  -12.4°C  -19.7°C  1013.2 hPa  80%  15.0 km/h   30.3 km/h  1%  0.01 mm/h  16.1km  41%  Partly Cloudy 
 06/03/2021 - 02:00  -12.9°C  -20.3°C  1013.3 hPa  81%  14.9 km/h   31.8 km/h  1%  0.01 mm/h  16.1km  44%  Partly Cloudy 
 06/03/2021 - 03:00  -13.5°C  -21.0°C  1013.8 hPa  82%  14.9 km/h   33.7 km/h  0%  --  16.1km  40%  Partly Cloudy 
 06/03/2021 - 04:00  -13.9°C  -21.5°C  1014.2 hPa  82%  14.8 km/h   34.2 km/h  0%  --  16.1km  37%  Partly Cloudy 
 06/03/2021 - 05:00  -14.3°C  -21.9°C  1014.5 hPa  82%  14.7 km/h   34.0 km/h  0%  --  16.1km  37%  Partly Cloudy 
 06/03/2021 - 06:00  -14.5°C  -22.2°C  1014.9 hPa  82%  14.9 km/h   34.4 km/h  0%  --  16.1km  37%  Partly Cloudy 
 06/03/2021 - 07:00  -13.9°C  -21.7°C  1015.7 hPa  82%  15.3 km/h   35.6 km/h  0%  --  16.1km  37%  Partly Cloudy 
 06/03/2021 - 08:00  -13.0°C  -20.9°C  1016.4 hPa  82%  16.7 km/h   33.6 km/h  0%  --  9.6km  55%  Partly Cloudy 
 06/03/2021 - 09:00  -11.7°C  -19.5°C  1016.4 hPa  81%  18.0 km/h   31.1 km/h  4%  0.02 mm/h  11.3km  66%  Mostly Cloudy 
 06/03/2021 - 10:00  -10.5°C  -18.3°C  1016.6 hPa  79%  19.5 km/h   29.9 km/h  4%  0.01 mm/h  13.6km  68%  Mostly Cloudy 
 06/03/2021 - 11:00  -9.6°C  -17.3°C  1016.9 hPa  78%  20.3 km/h   29.4 km/h  6%  0.01 mm/h  15.1km  73%  Mostly Cloudy 
 06/03/2021 - 12:00  -8.7°C  -16.4°C  1016.9 hPa  78%  20.9 km/h   29.8 km/h  6%  0.01 mm/h  14.7km  77%  Mostly Cloudy 
 06/03/2021 - 13:00  -8.5°C  -16.2°C  1016.8 hPa  76%  21.5 km/h   29.9 km/h  7%  0.01 mm/h  13.1km  79%  Mostly Cloudy 
 06/03/2021 - 14:00  -7.6°C  -15.1°C  1016.6 hPa  74%  21.6 km/h   30.3 km/h  7%  0.01 mm/h  13.7km  86%  Mostly Cloudy 
 06/03/2021 - 15:00  -6.7°C  -13.9°C  1016.7 hPa  73%  21.1 km/h   30.9 km/h  6%  0.01 mm/h  14.1km  93%  Overcast 
 06/03/2021 - 16:00  -6.2°C  -13.0°C  1017.1 hPa  72%  19.8 km/h   31.2 km/h  7%  0.01 mm/h  15.5km  98%  Overcast 
 06/03/2021 - 17:00  -6.4°C  -12.7°C  1017.7 hPa  74%  17.4 km/h   32.2 km/h  6%  0.01 mm/h  16.1km  97%  Overcast 
 06/03/2021 - 18:00  -7.1°C  -13.1°C  1018.7 hPa  77%  14.9 km/h   33.3 km/h  3%  0.01 mm/h  16.1km  86%  Mostly Cloudy 
 06/03/2021 - 19:00  -8.5°C  -14.4°C  1019.7 hPa  78%  13.1 km/h   27.8 km/h  2%  0.01 mm/h  15.3km  79%  Mostly Cloudy 
 06/03/2021 - 20:00  -9.5°C  -15.2°C  1020.6 hPa  77%  12.0 km/h   25.1 km/h  0%  --  16.1km  74%  Mostly Cloudy 
 06/03/2021 - 21:00  -10.2°C  -16.0°C  1021.4 hPa  76%  11.7 km/h   21.2 km/h  0%  --  16.1km  61%  Mostly Cloudy 
 06/03/2021 - 22:00  -10.8°C  -16.8°C  1021.8 hPa  75%  11.7 km/h   20.9 km/h  0%  --  16.1km  59%  Partly Cloudy 
 06/03/2021 - 23:00  -11.3°C  -17.3°C  1022.1 hPa  75%  11.4 km/h   19.4 km/h  0%  --  16.1km  53%  Partly Cloudy 
 07/03/2021 - 00:00  -11.8°C  -17.8°C  1022.6 hPa  77%  11.0 km/h   17.4 km/h  0%  --  16.1km  45%  Partly Cloudy 
 07/03/2021 - 01:00  -11.8°C  -17.5°C  1022.4 hPa  79%  10.2 km/h   15.4 km/h  0%  --  16.1km  32%  Partly Cloudy 
 07/03/2021 - 02:00  -12.3°C  -17.9°C  1022.9 hPa  81%  9.6 km/h   14.2 km/h  0%  --  16.1km  25%  Clear 
 07/03/2021 - 03:00  -12.8°C  -18.3°C  1023.5 hPa  82%  9.1 km/h   13.3 km/h  0%  --  16.1km  21%  Clear 
 07/03/2021 - 04:00  -13.3°C  -18.6°C  1024.3 hPa  82%  8.6 km/h   12.6 km/h  0%  --  16.1km  18%  Clear 
 07/03/2021 - 05:00  -13.8°C  -18.9°C  1025.3 hPa  81%  7.9 km/h   11.6 km/h  0%  --  16.1km  14%  Clear 
 07/03/2021 - 06:00  -14.3°C  -19.1°C  1026.3 hPa  80%  7.3 km/h   10.4 km/h  0%  --  16.1km  10%  Clear 
 07/03/2021 - 07:00  -14.7°C  -19.6°C  1027.5 hPa  78%  7.2 km/h   10.5 km/h  0%  --  16.1km  5%  Clear 
 07/03/2021 - 08:00  -13.9°C  -18.3°C  1028.3 hPa  78%  6.7 km/h   9.2 km/h  0%  --  16.1km  3%  Clear 
 07/03/2021 - 09:00  -12.6°C  -16.7°C  1028.7 hPa  76%  6.4 km/h   7.4 km/h  0%  --  16.1km  11%  Clear 
 07/03/2021 - 10:00  -11.5°C  -15.5°C  1029.0 hPa  73%  6.6 km/h   7.1 km/h  0%  --  16.1km  8%  Clear 
 07/03/2021 - 11:00  -10.6°C  -15.1°C  1029.1 hPa  72%  7.8 km/h   9.0 km/h  0%  --  16.1km  15%  Clear 

 

Past weather and reports

Past weatherFind in this section the past weather conditions, weather archive, graphics, reports and statistics.

Current conditions

Current weather condition for MontrealAll you need to know about the current weather conditions for Montreal. Weather data is updated every 10 minutes.

Weather forecast

Current Montreal weatherSince 2004, celinium.com website has provided accurate weather forecast for Montreal's island.